Terminal Aerodrome Forecast
Issued by NWS Cleveland, OH

Home | Current Version | Previous Version | Text Only | Print | Product List | Glossary Off
Versions: 1 2 3 4 5 6 7 8 9 10 11 12 13 14 15 16 17 18 19 20 21 22 23 24

000
FTUS41 KCLE 281737 CCA
TAFMFD
TAF COR
KMFD 281737Z 2818/2918 11012KT P6SM OVC035
     FM282100 14008KT 5SM -RA BR OVC035
     FM290200 07005KT P6SM OVC080
     FM290700 09005KT P6SM OVC025
     FM291400 09007KT 5SM -RA BR OVC025=

USA.gov is the U.S. government's official web portal to all federal, state and local government web resources and services.